createdAt,value
2023-01-13T00:00:33.522Z,995.65
2023-01-13T00:01:33.486Z,995.55
2023-01-13T00:02:33.508Z,995.52
2023-01-13T00:03:33.466Z,995.60
2023-01-13T00:04:33.503Z,995.58
2023-01-13T00:05:33.446Z,995.64
2023-01-13T00:06:33.702Z,995.60
2023-01-13T00:07:33.439Z,995.70
2023-01-13T00:08:33.453Z,995.64
2023-01-13T00:09:33.405Z,995.69
2023-01-13T00:10:33.399Z,995.65
2023-01-13T00:24:39.316Z,995.52
2023-01-13T00:25:37.490Z,995.53
2023-01-13T00:26:37.469Z,995.56
2023-01-13T00:27:37.468Z,995.58
2023-01-13T00:28:37.447Z,995.60
2023-01-13T00:29:37.431Z,995.57
2023-01-13T00:30:37.546Z,995.54
2023-01-13T00:31:37.515Z,995.62
2023-01-13T00:32:37.395Z,995.59
2023-01-13T00:33:37.396Z,995.60
2023-01-13T00:34:37.375Z,995.57
2023-01-13T00:35:37.357Z,995.55
2023-01-13T00:36:37.331Z,995.64
2023-01-13T00:37:37.342Z,995.60
2023-01-13T00:38:37.311Z,995.65
2023-01-13T00:39:37.297Z,995.68
2023-01-13T00:40:37.316Z,995.68
2023-01-13T00:41:37.382Z,995.67
2023-01-13T00:42:37.246Z,995.72
2023-01-13T00:43:37.243Z,995.79
2023-01-13T00:44:37.244Z,995.79
2023-01-13T00:45:37.267Z,995.73
2023-01-13T00:46:37.386Z,995.73
2023-01-13T00:47:37.191Z,995.88
2023-01-13T00:48:37.199Z,995.71
2023-01-13T00:49:37.186Z,995.76
2023-01-13T00:50:37.161Z,995.71
2023-01-13T00:51:37.131Z,995.67
2023-01-13T00:52:37.121Z,995.79
2023-01-13T00:53:37.107Z,995.75
2023-01-13T00:54:37.106Z,995.70
2023-01-13T00:55:37.177Z,995.72
2023-01-13T00:56:40.496Z,995.69
2023-01-13T00:57:37.052Z,995.70
2023-01-13T00:58:37.042Z,995.63
2023-01-13T00:59:37.025Z,995.57
2023-01-13T01:00:37.080Z,995.62
2023-01-13T01:01:37.193Z,995.66
2023-01-13T01:02:37.023Z,995.65
2023-01-13T01:03:36.989Z,995.67
2023-01-13T01:04:36.950Z,995.72
2023-01-13T01:05:37.014Z,995.71
2023-01-13T01:06:36.951Z,995.73
2023-01-13T01:07:36.926Z,995.73
2023-01-13T01:08:36.915Z,995.76
2023-01-13T01:09:36.929Z,995.76
2023-01-13T01:10:36.954Z,995.76
2023-01-13T01:11:36.880Z,995.79
2023-01-13T01:12:36.867Z,995.74
2023-01-13T01:13:36.852Z,995.82
2023-01-13T01:14:36.832Z,995.76
2023-01-13T01:15:36.877Z,995.74
2023-01-13T01:16:36.836Z,995.73
2023-01-13T01:17:36.808Z,995.81
2023-01-13T01:18:36.800Z,995.58
2023-01-13T01:19:36.973Z,995.80
2023-01-13T01:20:36.777Z,995.76
2023-01-13T01:21:36.748Z,995.74
2023-01-13T01:22:36.769Z,995.85
2023-01-13T01:23:36.722Z,995.75
2023-01-13T01:24:36.705Z,995.67
2023-01-13T01:25:36.704Z,995.71
2023-01-13T01:26:36.721Z,995.71
2023-01-13T01:27:36.657Z,995.72
2023-01-13T01:28:36.647Z,995.79
2023-01-13T01:29:36.674Z,995.75
2023-01-13T01:30:36.634Z,995.72
2023-01-13T01:31:36.622Z,995.68
2023-01-13T01:32:36.604Z,995.77
2023-01-13T01:33:38.741Z,995.79
2023-01-13T01:34:36.567Z,995.82
2023-01-13T01:35:36.561Z,995.73
2023-01-13T01:36:36.547Z,995.91
2023-01-13T01:37:36.565Z,995.62
2023-01-13T01:38:36.516Z,995.80
2023-01-13T01:39:36.533Z,995.81
2023-01-13T01:40:36.525Z,995.81
2023-01-13T01:41:36.474Z,995.72
2023-01-13T01:42:36.519Z,995.77
2023-01-13T01:43:36.470Z,995.78
2023-01-13T01:44:36.466Z,995.73
2023-01-13T01:45:36.466Z,995.74
2023-01-13T01:46:36.510Z,995.67
2023-01-13T01:47:36.394Z,995.76
2023-01-13T01:48:36.398Z,995.69
2023-01-13T01:49:36.399Z,995.81
2023-01-13T01:50:36.371Z,995.65
2023-01-13T01:51:37.192Z,995.66
2023-01-13T01:52:36.343Z,995.73
2023-01-13T01:53:36.353Z,995.76
2023-01-13T01:54:36.375Z,995.85
2023-01-13T01:55:36.341Z,995.86
2023-01-13T01:56:36.309Z,995.92
2023-01-13T01:57:36.269Z,995.98
2023-01-13T01:58:36.293Z,995.93
2023-01-13T01:59:36.243Z,995.94
2023-01-13T02:00:36.297Z,995.98
2023-01-13T02:01:36.401Z,996.02
2023-01-13T02:02:36.285Z,995.98
2023-01-13T02:03:36.191Z,996.03
2023-01-13T02:04:36.196Z,995.98
2023-01-13T02:05:36.215Z,996.03
2023-01-13T02:06:36.162Z,995.97
2023-01-13T02:07:36.148Z,996.01
2023-01-13T02:08:36.185Z,996.01
2023-01-13T02:09:36.117Z,996.00
2023-01-13T02:10:36.123Z,996.07
2023-01-13T02:11:36.109Z,995.95
2023-01-13T02:12:36.088Z,996.01
2023-01-13T02:13:36.124Z,996.08
2023-01-13T02:14:36.049Z,995.88
2023-01-13T02:15:36.056Z,995.96
2023-01-13T02:16:36.056Z,995.98
2023-01-13T02:17:36.026Z,995.94
2023-01-13T02:18:35.997Z,995.98
2023-01-13T02:19:35.981Z,995.91
2023-01-13T02:20:35.971Z,995.92
2023-01-13T02:21:35.972Z,995.89
2023-01-13T02:22:35.957Z,995.89
2023-01-13T02:23:35.930Z,995.77
2023-01-13T02:24:35.908Z,995.81
2023-01-13T02:25:35.923Z,995.77
2023-01-13T02:26:35.924Z,995.75
2023-01-13T02:27:35.901Z,995.81
2023-01-13T02:28:35.912Z,995.86
2023-01-13T02:29:35.883Z,995.82
2023-01-13T02:30:35.901Z,995.82
2023-01-13T02:31:35.853Z,995.78
2023-01-13T02:32:35.810Z,995.74
2023-01-13T02:33:35.785Z,995.72
2023-01-13T02:34:35.803Z,995.75
2023-01-13T02:35:35.766Z,995.77
2023-01-13T02:36:35.779Z,995.69
2023-01-13T02:37:35.750Z,995.68
2023-01-13T02:38:35.738Z,995.66
2023-01-13T02:39:35.716Z,995.78
2023-01-13T02:40:35.698Z,995.76
2023-01-13T02:41:35.690Z,995.83
2023-01-13T02:42:35.672Z,995.72
2023-01-13T02:43:35.660Z,995.72
2023-01-13T02:44:35.648Z,995.72
2023-01-13T02:45:35.712Z,995.74
2023-01-13T02:46:35.627Z,995.72
2023-01-13T02:47:35.611Z,995.71
2023-01-13T02:48:35.598Z,995.71
2023-01-13T02:49:35.613Z,995.65
2023-01-13T02:50:35.572Z,995.67
2023-01-13T02:51:35.561Z,995.69
2023-01-13T02:52:35.561Z,995.64
2023-01-13T02:53:35.530Z,995.65
2023-01-13T02:54:35.523Z,995.72
2023-01-13T02:55:35.502Z,995.65
2023-01-13T02:56:35.505Z,995.66
2023-01-13T02:57:35.549Z,995.69
2023-01-13T02:58:35.461Z,995.66
2023-01-13T02:59:35.367Z,995.70
2023-01-13T03:00:35.311Z,995.64
2023-01-13T03:01:35.583Z,995.64
2023-01-13T03:02:35.367Z,995.65
2023-01-13T03:03:35.286Z,995.56
2023-01-13T03:04:35.273Z,995.60
2023-01-13T03:05:35.244Z,995.59
2023-01-13T03:06:35.247Z,995.61
2023-01-13T03:07:35.225Z,995.56
2023-01-13T03:08:35.201Z,995.52
2023-01-13T03:09:35.196Z,995.62
2023-01-13T03:10:35.192Z,995.60
2023-01-13T03:11:35.180Z,995.59
2023-01-13T03:12:35.157Z,995.55
2023-01-13T03:13:35.188Z,995.52
2023-01-13T03:14:35.123Z,995.53
2023-01-13T03:15:35.127Z,995.58
2023-01-13T03:16:35.211Z,995.51
2023-01-13T03:17:35.125Z,995.39
2023-01-13T03:18:35.077Z,995.37
2023-01-13T03:19:35.074Z,995.42
2023-01-13T03:20:35.057Z,995.45
2023-01-13T03:21:35.074Z,995.51
2023-01-13T03:22:35.028Z,995.46
2023-01-13T03:23:35.016Z,995.42
2023-01-13T03:24:34.998Z,995.51
2023-01-13T03:25:34.980Z,995.54
2023-01-13T03:26:35.046Z,995.52
2023-01-13T03:27:34.977Z,995.62
2023-01-13T03:28:34.983Z,995.55
2023-01-13T03:29:34.971Z,995.55
2023-01-13T03:30:34.983Z,995.52
2023-01-13T03:31:34.957Z,995.61
2023-01-13T03:32:34.899Z,995.54
2023-01-13T03:33:34.883Z,995.50
2023-01-13T03:34:34.869Z,995.51
2023-01-13T03:35:34.856Z,995.51
2023-01-13T03:36:34.854Z,995.57
2023-01-13T03:37:34.882Z,995.54
2023-01-13T03:38:34.819Z,995.56
2023-01-13T03:39:34.808Z,995.59
2023-01-13T03:40:34.779Z,995.60
2023-01-13T03:41:34.784Z,995.50
2023-01-13T03:42:34.772Z,995.50
2023-01-13T03:43:34.755Z,995.55
2023-01-13T03:44:34.759Z,995.50
2023-01-13T03:45:34.762Z,995.58
2023-01-13T03:46:34.717Z,995.53
2023-01-13T03:47:34.705Z,995.52
2023-01-13T03:48:34.689Z,995.48
2023-01-13T03:49:34.689Z,995.53
2023-01-13T03:50:34.656Z,995.52
2023-01-13T03:51:34.656Z,995.70
2023-01-13T03:52:34.658Z,995.52
2023-01-13T03:53:34.625Z,995.46
2023-01-13T03:54:34.598Z,995.51
2023-01-13T03:55:34.636Z,995.58
2023-01-13T03:56:34.575Z,995.47
2023-01-13T03:57:34.586Z,995.42
2023-01-13T03:58:34.546Z,995.46
2023-01-13T03:59:34.543Z,995.44
2023-01-13T04:00:34.534Z,995.41
2023-01-13T04:01:34.635Z,995.42
2023-01-13T04:02:34.510Z,995.48
2023-01-13T04:03:34.502Z,995.45
2023-01-13T04:04:34.479Z,995.46
2023-01-13T04:05:34.461Z,995.45
2023-01-13T04:06:34.442Z,995.48
2023-01-13T04:07:34.448Z,995.47
2023-01-13T04:08:34.422Z,995.47
2023-01-13T04:09:34.466Z,995.49
2023-01-13T04:10:34.390Z,995.41
2023-01-13T04:11:34.404Z,995.40
2023-01-13T04:12:34.376Z,995.38
2023-01-13T04:13:34.414Z,995.39
2023-01-13T04:14:34.335Z,995.30
2023-01-13T04:15:34.406Z,995.28
2023-01-13T04:16:36.852Z,995.26
2023-01-13T04:17:34.300Z,995.24
2023-01-13T04:18:34.280Z,995.28
2023-01-13T04:19:34.296Z,995.37
2023-01-13T04:20:34.269Z,995.40
2023-01-13T04:21:34.239Z,995.36
2023-01-13T04:22:34.276Z,995.49
2023-01-13T04:23:34.229Z,995.45
2023-01-13T04:24:34.220Z,995.46
2023-01-13T04:25:34.190Z,995.49
2023-01-13T04:26:34.231Z,995.54
2023-01-13T04:27:34.184Z,995.53
2023-01-13T04:28:34.151Z,995.45
2023-01-13T04:29:34.210Z,995.48
2023-01-13T04:30:34.158Z,995.50
2023-01-13T04:31:34.106Z,995.52
2023-01-13T04:32:34.127Z,995.57
2023-01-13T04:33:34.099Z,995.48
2023-01-13T04:34:34.068Z,995.44
2023-01-13T04:35:34.151Z,995.52
2023-01-13T04:36:34.051Z,995.47
2023-01-13T04:37:34.070Z,995.46
2023-01-13T04:38:34.017Z,995.44
2023-01-13T04:39:33.997Z,995.46
2023-01-13T04:40:34.038Z,995.38
2023-01-13T04:41:34.024Z,995.40
2023-01-13T04:42:33.978Z,995.30
2023-01-13T04:43:33.986Z,995.35
2023-01-13T04:44:33.933Z,995.40
2023-01-13T04:45:33.932Z,995.35
2023-01-13T04:46:34.012Z,995.34
2023-01-13T04:47:33.925Z,995.30
2023-01-13T04:48:33.889Z,995.34
2023-01-13T04:49:33.887Z,995.31
2023-01-13T04:50:33.864Z,995.29
2023-01-13T04:51:33.866Z,995.28
2023-01-13T04:52:33.855Z,995.27
2023-01-13T04:53:33.851Z,995.24
2023-01-13T04:54:33.861Z,995.25
2023-01-13T04:55:33.815Z,995.31
2023-01-13T04:56:33.798Z,995.30
2023-01-13T04:57:33.784Z,995.31
2023-01-13T04:58:33.783Z,995.31
2023-01-13T04:59:34.672Z,995.36
2023-01-13T05:00:33.752Z,995.36
2023-01-13T05:01:33.955Z,995.44
2023-01-13T05:02:33.714Z,995.33
2023-01-13T05:03:33.714Z,995.30
2023-01-13T05:04:33.711Z,995.39
2023-01-13T05:05:33.689Z,995.32
2023-01-13T05:06:33.645Z,995.31
2023-01-13T05:07:33.657Z,995.26
2023-01-13T05:08:33.616Z,995.24
2023-01-13T05:09:33.677Z,995.24
2023-01-13T05:10:33.612Z,995.24
2023-01-13T05:11:33.618Z,995.31
2023-01-13T05:12:33.575Z,995.25
2023-01-13T05:13:33.614Z,995.20
2023-01-13T05:14:33.604Z,995.15
2023-01-13T05:15:33.574Z,995.22
2023-01-13T05:16:33.569Z,995.24
2023-01-13T05:17:33.526Z,995.27
2023-01-13T05:18:33.514Z,995.26
2023-01-13T05:19:33.536Z,995.20
2023-01-13T05:20:33.600Z,995.22
2023-01-13T05:21:33.490Z,995.16
2023-01-13T05:22:33.450Z,995.23
2023-01-13T05:23:33.470Z,995.20
2023-01-13T05:24:33.467Z,995.23
2023-01-13T05:25:33.393Z,995.24
2023-01-13T05:26:33.369Z,995.18
2023-01-13T05:27:33.385Z,995.14
2023-01-13T05:28:33.383Z,995.16
2023-01-13T05:29:33.353Z,995.18
2023-01-13T05:30:33.329Z,995.17
2023-01-13T05:31:33.412Z,995.13
2023-01-13T05:32:33.338Z,995.17
2023-01-13T05:33:35.751Z,995.16
2023-01-13T05:34:33.275Z,995.12
2023-01-13T05:35:33.289Z,995.18
2023-01-13T05:36:33.243Z,995.13
2023-01-13T05:37:33.241Z,995.27
2023-01-13T05:38:33.242Z,995.17
2023-01-13T05:39:33.255Z,995.21
2023-01-13T05:40:33.191Z,995.11
2023-01-13T05:41:33.193Z,995.25
2023-01-13T05:42:33.173Z,995.19
2023-01-13T05:43:33.166Z,995.29
2023-01-13T05:44:33.174Z,995.33
2023-01-13T05:45:33.125Z,995.25
2023-01-13T05:46:33.163Z,995.22
2023-01-13T05:47:33.116Z,995.24
2023-01-13T05:48:33.104Z,995.28
2023-01-13T05:49:33.075Z,995.33
2023-01-13T05:50:33.064Z,995.30
2023-01-13T05:51:33.067Z,995.24
2023-01-13T05:52:33.087Z,995.29
2023-01-13T05:53:33.043Z,995.24
2023-01-13T05:54:33.017Z,995.21
2023-01-13T05:55:33.014Z,995.23
2023-01-13T05:56:32.992Z,995.30
2023-01-13T05:57:33.012Z,995.31
2023-01-13T05:58:32.978Z,995.33
2023-01-13T05:59:32.970Z,995.29
2023-01-13T06:00:32.951Z,995.30
2023-01-13T06:01:32.958Z,995.26
2023-01-13T06:02:33.064Z,995.18
2023-01-13T06:03:32.914Z,995.22
2023-01-13T06:04:32.974Z,995.40
2023-01-13T06:05:32.901Z,995.40
2023-01-13T06:06:32.874Z,995.46
2023-01-13T06:07:32.844Z,995.36
2023-01-13T06:08:32.905Z,995.33
2023-01-13T06:09:32.813Z,995.39
2023-01-13T06:10:32.804Z,995.19
2023-01-13T06:11:32.800Z,995.46
2023-01-13T06:12:32.795Z,995.35
2023-01-13T06:13:32.823Z,995.36
2023-01-13T06:14:32.747Z,995.38
2023-01-13T06:15:32.749Z,995.38
2023-01-13T06:16:32.812Z,995.40
2023-01-13T06:17:32.758Z,995.42
2023-01-13T06:18:32.705Z,995.36
2023-01-13T06:19:32.691Z,995.45
2023-01-13T06:20:32.671Z,995.37
2023-01-13T06:21:33.346Z,995.49
2023-01-13T06:22:32.666Z,995.54
2023-01-13T06:23:32.643Z,995.52
2023-01-13T06:24:32.653Z,995.44
2023-01-13T06:25:32.624Z,995.47
2023-01-13T06:26:32.592Z,995.37
2023-01-13T06:27:32.574Z,995.42
2023-01-13T06:28:32.615Z,995.44
2023-01-13T06:29:32.568Z,995.55
2023-01-13T06:30:32.531Z,995.56
2023-01-13T06:31:32.607Z,995.60
2023-01-13T06:32:32.515Z,995.64
2023-01-13T06:33:32.557Z,995.53
2023-01-13T06:34:32.479Z,995.57
2023-01-13T06:35:32.510Z,995.68
2023-01-13T06:36:32.499Z,995.62
2023-01-13T06:37:32.445Z,995.61
2023-01-13T06:38:32.475Z,995.69
2023-01-13T06:39:32.475Z,995.56
2023-01-13T06:40:32.419Z,995.62
2023-01-13T06:41:32.440Z,995.58
2023-01-13T06:42:32.408Z,995.60
2023-01-13T06:43:32.406Z,995.64
2023-01-13T06:44:32.358Z,995.62
2023-01-13T06:45:32.340Z,995.64
2023-01-13T06:46:32.419Z,995.65
2023-01-13T06:47:32.316Z,995.70
2023-01-13T06:48:32.299Z,995.67
2023-01-13T06:49:32.325Z,995.68
2023-01-13T06:50:32.336Z,995.68
2023-01-13T06:51:32.277Z,995.78
2023-01-13T06:52:32.247Z,995.69
2023-01-13T06:53:32.264Z,995.72
2023-01-13T06:54:32.220Z,995.69
2023-01-13T06:55:32.200Z,995.66
2023-01-13T06:56:32.199Z,995.62
2023-01-13T06:57:32.248Z,995.69
2023-01-13T06:58:32.162Z,995.68
2023-01-13T06:59:32.172Z,995.74
2023-01-13T07:00:32.176Z,995.69
2023-01-13T07:01:32.207Z,995.71
2023-01-13T07:02:32.172Z,995.69
2023-01-13T07:03:32.115Z,995.72
2023-01-13T07:04:32.081Z,995.74
2023-01-13T07:05:32.095Z,995.65
2023-01-13T07:06:32.054Z,995.66
2023-01-13T07:07:32.040Z,995.66
2023-01-13T07:08:32.049Z,995.67
2023-01-13T07:09:32.027Z,995.63
2023-01-13T07:10:32.007Z,995.77
2023-01-13T07:11:31.991Z,995.71
2023-01-13T07:12:31.976Z,995.70
2023-01-13T07:13:31.973Z,995.74
2023-01-13T07:14:31.954Z,995.76
2023-01-13T07:15:31.947Z,995.69
2023-01-13T07:16:31.965Z,995.61
2023-01-13T07:17:31.946Z,995.69
2023-01-13T07:18:32.035Z,995.67
2023-01-13T07:19:31.914Z,995.67
2023-01-13T07:20:31.870Z,995.67
2023-01-13T07:21:31.858Z,995.72
2023-01-13T07:22:31.858Z,995.72
2023-01-13T07:23:31.845Z,995.74
2023-01-13T07:24:31.857Z,995.80
2023-01-13T07:25:31.811Z,995.71
2023-01-13T07:26:31.825Z,995.74
2023-01-13T07:27:31.768Z,995.84
2023-01-13T07:28:31.823Z,995.80
2023-01-13T07:29:31.764Z,995.78
2023-01-13T07:30:31.738Z,995.83
2023-01-13T07:31:31.796Z,995.80
2023-01-13T07:32:31.721Z,995.86
2023-01-13T07:33:31.710Z,995.81
2023-01-13T07:34:31.712Z,995.81
2023-01-13T07:35:31.667Z,995.79
2023-01-13T07:36:31.656Z,995.94
2023-01-13T07:37:31.640Z,995.98
2023-01-13T07:38:31.654Z,995.93
2023-01-13T07:39:31.627Z,995.96
2023-01-13T07:40:31.663Z,995.98
2023-01-13T07:41:31.658Z,995.99
2023-01-13T07:42:31.607Z,995.97
2023-01-13T07:43:31.567Z,995.94
2023-01-13T07:44:31.568Z,996.04
2023-01-13T07:45:31.610Z,996.03
2023-01-13T07:46:31.542Z,995.97
2023-01-13T07:47:31.541Z,996.05
2023-01-13T07:48:31.504Z,996.04
2023-01-13T07:49:31.515Z,996.04
2023-01-13T07:50:31.475Z,996.10
2023-01-13T07:51:32.350Z,996.06
2023-01-13T07:52:31.441Z,995.96
2023-01-13T07:53:31.443Z,996.05
2023-01-13T07:54:40.205Z,996.08
2023-01-13T07:55:31.418Z,996.08
2023-01-13T07:56:31.417Z,996.04
2023-01-13T07:57:31.422Z,996.09
2023-01-13T07:58:31.371Z,996.10
2023-01-13T07:59:31.375Z,996.11
2023-01-13T08:00:31.351Z,996.07
2023-01-13T08:01:31.378Z,996.11
2023-01-13T08:02:31.444Z,996.10
2023-01-13T08:03:31.412Z,996.05
2023-01-13T08:04:31.301Z,995.99
2023-01-13T08:05:31.278Z,996.09
2023-01-13T08:06:31.261Z,996.04
2023-01-13T08:07:31.274Z,996.04
2023-01-13T08:08:31.250Z,996.13
2023-01-13T08:09:31.247Z,996.15
2023-01-13T08:10:31.232Z,996.15
2023-01-13T08:11:31.204Z,996.09
2023-01-13T08:12:31.190Z,996.01
2023-01-13T08:13:31.218Z,996.11
2023-01-13T08:14:31.191Z,996.16
2023-01-13T08:15:31.251Z,996.09
2023-01-13T08:16:31.289Z,996.09
2023-01-13T08:17:31.171Z,996.11
2023-01-13T08:18:31.146Z,996.14
2023-01-13T08:19:31.145Z,996.13
2023-01-13T08:20:31.333Z,996.21
2023-01-13T08:21:31.098Z,996.13
2023-01-13T08:22:31.145Z,996.17
2023-01-13T08:23:31.038Z,996.13
2023-01-13T08:24:31.061Z,996.22
2023-01-13T08:25:31.083Z,996.17
2023-01-13T08:26:31.038Z,996.28
2023-01-13T08:27:31.013Z,996.29
2023-01-13T08:28:30.984Z,996.25
2023-01-13T08:29:31.038Z,996.25
2023-01-13T08:30:30.993Z,996.32
2023-01-13T08:31:30.937Z,996.33
2023-01-13T08:32:30.966Z,996.26
2023-01-13T08:33:30.950Z,996.32
2023-01-13T08:34:30.902Z,996.34
2023-01-13T08:35:31.081Z,996.36
2023-01-13T08:36:30.857Z,996.30
2023-01-13T08:37:30.840Z,996.27
2023-01-13T08:38:30.888Z,996.27
2023-01-13T08:39:30.848Z,996.37
2023-01-13T08:40:30.824Z,996.35
2023-01-13T08:41:30.819Z,996.30
2023-01-13T08:42:30.789Z,996.27
2023-01-13T08:43:30.947Z,996.35
2023-01-13T08:44:30.949Z,996.28
2023-01-13T08:45:30.807Z,996.27
2023-01-13T08:46:30.818Z,996.29
2023-01-13T08:47:30.722Z,996.37
2023-01-13T08:48:31.643Z,996.28
2023-01-13T08:49:30.711Z,996.30
2023-01-13T08:50:30.788Z,996.25
2023-01-13T08:51:30.709Z,996.28
2023-01-13T08:52:30.672Z,996.26
2023-01-13T08:53:30.636Z,996.35
2023-01-13T08:54:30.651Z,996.39
2023-01-13T08:55:30.634Z,996.30
2023-01-13T08:56:32.184Z,996.28
2023-01-13T08:57:30.953Z,996.31
2023-01-13T08:58:30.571Z,996.44
2023-01-13T08:59:30.595Z,996.41
2023-01-13T09:00:30.602Z,996.48
2023-01-13T09:01:30.680Z,996.43
2023-01-13T09:02:30.569Z,996.30
2023-01-13T09:03:30.678Z,996.36
2023-01-13T09:04:30.598Z,996.34
2023-01-13T09:05:30.476Z,996.42
2023-01-13T09:06:30.576Z,996.51
2023-01-13T09:07:30.463Z,996.33
2023-01-13T09:08:30.483Z,996.36
2023-01-13T09:09:30.490Z,996.40
2023-01-13T09:10:30.465Z,996.33
2023-01-13T09:11:31.899Z,996.31
2023-01-13T09:12:29.590Z,996.46
2023-01-13T09:13:30.427Z,996.38
2023-01-13T09:14:30.369Z,996.39
2023-01-13T09:15:30.385Z,996.41
2023-01-13T09:16:30.350Z,996.51
2023-01-13T09:17:31.028Z,996.50
2023-01-13T09:18:30.447Z,996.40
2023-01-13T09:19:30.292Z,996.54
2023-01-13T09:20:30.664Z,996.50
2023-01-13T09:21:30.352Z,996.48
2023-01-13T09:22:30.287Z,996.50
2023-01-13T09:23:31.544Z,996.54
2023-01-13T09:24:30.245Z,996.67
2023-01-13T09:25:30.258Z,996.43
2023-01-13T09:26:30.258Z,996.48
2023-01-13T09:27:30.281Z,996.60
2023-01-13T09:28:30.271Z,996.53
2023-01-13T09:29:30.158Z,996.57
2023-01-13T09:30:30.155Z,996.57
2023-01-13T09:31:30.160Z,996.50
2023-01-13T09:34:38.099Z,996.61
2023-01-13T09:35:39.117Z,996.62
2023-01-13T09:36:40.194Z,996.67
2023-01-13T09:37:39.043Z,996.64
2023-01-13T09:38:39.150Z,996.65
2023-01-13T09:39:39.857Z,996.69
2023-01-13T09:40:42.380Z,996.66
2023-01-13T09:41:43.755Z,996.66
2023-01-13T09:42:41.690Z,996.56
2023-01-13T09:43:40.658Z,996.63
2023-01-13T09:44:39.494Z,996.66
2023-01-13T09:45:40.308Z,996.68
2023-01-13T09:46:39.973Z,996.54
2023-01-13T09:47:39.094Z,996.76
2023-01-13T09:48:47.797Z,996.57
2023-01-13T09:49:38.890Z,996.64
2023-01-13T09:50:38.920Z,996.61
2023-01-13T09:51:38.863Z,996.64
2023-01-13T09:52:38.836Z,996.64
2023-01-13T09:53:39.030Z,996.71
2023-01-13T09:54:38.856Z,996.50
2023-01-13T09:55:38.819Z,996.76
2023-01-13T09:56:38.849Z,996.72
2023-01-13T09:57:38.773Z,996.74
2023-01-13T09:58:38.771Z,996.76
2023-01-13T09:59:38.765Z,996.61
2023-01-13T10:00:38.806Z,996.69
2023-01-13T10:01:38.819Z,996.79
2023-01-13T10:02:38.894Z,996.65
2023-01-13T10:03:38.849Z,996.64
2023-01-13T10:04:38.748Z,996.64
2023-01-13T10:05:42.885Z,996.56
2023-01-13T10:08:21.052Z,996.55
2023-01-13T10:12:17.331Z,996.83
2023-01-13T10:12:52.036Z,996.67
2023-01-13T10:13:52.023Z,996.49
2023-01-13T10:14:51.992Z,996.55
2023-01-13T10:16:13.755Z,996.59
2023-01-13T10:16:51.963Z,996.68
2023-01-13T10:22:03.177Z,996.48
2023-01-13T10:23:04.170Z,996.63
2023-01-13T10:24:04.111Z,996.53
2023-01-13T10:26:55.070Z,996.64
2023-01-13T10:27:56.026Z,996.77
2023-01-13T10:28:56.013Z,996.73
2023-01-13T10:34:35.957Z,996.68
2023-01-13T10:35:38.930Z,996.77
2023-01-13T10:36:35.811Z,996.82
2023-01-13T10:37:35.845Z,996.77
2023-01-13T10:42:41.475Z,996.84
2023-01-13T10:43:28.227Z,996.74
2023-01-13T10:44:28.213Z,996.75
2023-01-13T10:45:28.223Z,996.76
2023-01-13T10:46:28.207Z,996.80
2023-01-13T10:47:28.189Z,996.74
2023-01-13T10:48:28.165Z,996.81
2023-01-13T10:49:28.164Z,996.81
2023-01-13T10:50:28.193Z,996.76
2023-01-13T10:51:28.148Z,996.90
2023-01-13T10:52:28.190Z,996.92
2023-01-13T10:55:08.381Z,996.85
2023-01-13T10:56:02.167Z,996.86
2023-01-13T10:57:16.381Z,996.82
2023-01-13T10:58:02.153Z,996.90
2023-01-13T10:59:24.354Z,996.87
2023-01-13T11:00:02.124Z,996.91
2023-01-13T11:06:44.553Z,997.00
2023-01-13T11:07:45.477Z,996.97
2023-01-13T11:08:45.505Z,997.03
2023-01-13T11:10:57.245Z,997.05
2023-01-13T11:11:58.068Z,996.97
2023-01-13T11:12:58.028Z,996.97
2023-01-13T11:13:58.031Z,996.92
2023-01-13T11:14:58.034Z,996.93
2023-01-13T11:15:58.035Z,996.93
2023-01-13T11:16:57.998Z,997.00
2023-01-13T11:17:57.977Z,996.99
2023-01-13T11:18:57.958Z,996.98
2023-01-13T11:19:57.949Z,996.99
2023-01-13T11:20:57.951Z,996.89
2023-01-13T11:21:57.935Z,996.94
2023-01-13T11:22:57.928Z,997.02
2023-01-13T11:23:57.869Z,996.87
2023-01-13T11:24:57.872Z,997.06
2023-01-13T11:25:57.876Z,996.89
2023-01-13T11:27:02.383Z,996.98
2023-01-13T11:27:57.836Z,996.89
2023-01-13T11:28:57.811Z,996.98
2023-01-13T11:30:20.004Z,996.90
2023-01-13T11:30:57.809Z,997.01
2023-01-13T11:31:57.830Z,997.08
2023-01-13T11:33:20.022Z,996.97
2023-01-13T11:33:57.767Z,997.08
2023-01-13T11:34:57.728Z,997.12
2023-01-13T11:35:57.732Z,997.16
2023-01-13T11:36:57.746Z,997.25
2023-01-13T11:37:57.719Z,997.26
2023-01-13T11:38:57.698Z,997.15
2023-01-13T11:39:57.708Z,997.18
2023-01-13T11:40:57.741Z,997.20
2023-01-13T11:41:57.643Z,997.14
2023-01-13T11:42:58.104Z,997.25
2023-01-13T11:43:57.666Z,997.13
2023-01-13T11:44:57.637Z,997.16
2023-01-13T11:45:57.598Z,997.17
2023-01-13T11:46:57.664Z,997.20
2023-01-13T11:47:57.660Z,997.08
2023-01-13T11:48:57.545Z,997.07
2023-01-13T11:49:57.579Z,997.26
2023-01-13T11:50:57.530Z,997.21
2023-01-13T11:51:57.540Z,997.16
2023-01-13T11:52:57.498Z,997.17
2023-01-13T11:53:57.537Z,997.16
2023-01-13T11:54:57.471Z,997.25
2023-01-13T11:55:57.458Z,997.30
2023-01-13T11:56:57.439Z,997.17
2023-01-13T11:57:57.438Z,997.23
2023-01-13T11:58:57.473Z,997.19
2023-01-13T11:59:57.435Z,997.23
2023-01-13T12:00:57.433Z,997.27
2023-01-13T12:01:57.423Z,997.33
2023-01-13T12:02:57.396Z,997.14
2023-01-13T12:03:57.348Z,997.25
2023-01-13T12:04:57.352Z,997.34
2023-01-13T12:05:57.311Z,997.31
2023-01-13T12:06:56.361Z,997.41
2023-01-13T12:07:57.314Z,997.47
2023-01-13T12:08:57.277Z,997.49
2023-01-13T12:09:57.272Z,997.45
2023-01-13T12:10:57.283Z,997.41
2023-01-13T12:11:57.270Z,997.44
2023-01-13T12:12:59.479Z,997.44
2023-01-13T12:13:57.251Z,997.42
2023-01-13T12:14:57.208Z,997.48
2023-01-13T12:15:57.256Z,997.47
2023-01-13T12:16:57.166Z,997.38
2023-01-13T12:17:57.218Z,997.46
2023-01-13T12:18:57.143Z,997.41
2023-01-13T12:19:57.150Z,997.40
2023-01-13T12:20:57.117Z,997.51
2023-01-13T12:21:57.117Z,997.64
2023-01-13T12:22:57.131Z,997.55
2023-01-13T12:23:57.125Z,997.58
2023-01-13T12:24:57.150Z,997.59
2023-01-13T12:25:57.058Z,997.54
2023-01-13T12:26:57.027Z,997.58
2023-01-13T12:27:57.078Z,997.58
2023-01-13T12:28:57.055Z,997.57
2023-01-13T12:29:57.001Z,997.57
2023-01-13T12:30:56.983Z,997.63
2023-01-13T12:31:57.072Z,997.61
2023-01-13T12:32:57.029Z,997.64
2023-01-13T12:33:56.941Z,997.66
2023-01-13T12:34:56.930Z,997.67
2023-01-13T12:35:56.917Z,997.60
2023-01-13T12:36:56.929Z,997.55
2023-01-13T12:37:57.607Z,997.54
2023-01-13T12:38:56.905Z,997.61
2023-01-13T12:39:56.869Z,997.60
2023-01-13T12:40:56.855Z,997.63
2023-01-13T12:41:56.879Z,997.75
2023-01-13T12:42:56.823Z,997.56
2023-01-13T12:43:56.876Z,997.62
2023-01-13T12:44:56.791Z,997.78
2023-01-13T12:45:56.855Z,997.72
2023-01-13T12:46:56.774Z,997.71
2023-01-13T12:47:56.791Z,997.72
2023-01-13T12:48:56.817Z,997.65
2023-01-13T12:49:56.758Z,997.72
2023-01-13T12:50:56.703Z,997.66
2023-01-13T12:51:56.734Z,997.84
2023-01-13T12:52:56.680Z,997.62
2023-01-13T12:53:56.753Z,997.63
2023-01-13T12:54:56.652Z,997.68
2023-01-13T12:55:56.644Z,997.65
2023-01-13T12:56:56.643Z,997.73
2023-01-13T12:57:56.647Z,997.67
2023-01-13T12:58:56.612Z,997.71
2023-01-13T12:59:56.617Z,997.72
2023-01-13T13:00:56.813Z,997.69
2023-01-13T13:01:56.734Z,997.71
2023-01-13T13:02:56.621Z,997.66
2023-01-13T13:03:56.582Z,997.72
2023-01-13T13:04:56.520Z,997.66
2023-01-13T13:05:56.507Z,997.69
2023-01-13T13:06:56.491Z,997.65
2023-01-13T13:07:56.489Z,997.73
2023-01-13T13:08:56.485Z,997.69
2023-01-13T13:09:56.458Z,997.67
2023-01-13T13:10:56.488Z,997.73